Time;durP1;ratioP1;P1;durP2;ratioP2;P2;SDS_P1;SDS_P2;PMS_P1;PMS_P2;Temp;Humidity;BMP_temperature;BMP_pressure;BME280_temperature;BME280_humidity;BME280_pressure;Samples;Min_cycle;Max_cycle;Signal;HPM_P1;HPM_P2
2023/07/11 00:00:23;;;;;;;7.10;2.97;;;;;;;18.23;93.84;101546.72;1035594;28;20073;-40
2023/07/11 00:00:55;;;;;;;4.30;3.22;;;;;;;18.21;93.76;101548.88;1031292;28;20053;-41
2023/07/11 00:01:27;;;;;;;6.15;3.58;;;;;;;18.27;94.32;101549.75;1031089;28;20488;-40
2023/07/11 00:01:58;;;;;;;6.88;3.88;;;;;;;18.26;93.68;101550.00;1034819;28;20160;-40
2023/07/11 00:02:30;;;;;;;8.73;4.72;;;;;;;18.23;94.02;101549.44;1035574;28;20057;-40
2023/07/11 00:03:02;;;;;;;6.38;3.10;;;;;;;18.21;93.95;101546.16;1035400;28;20053;-39
2023/07/11 00:03:34;;;;;;;8.90;5.47;;;;;;;18.25;94.27;101545.66;1035248;28;20041;-40
2023/07/11 00:04:05;;;;;;;9.00;4.20;;;;;;;18.26;93.91;101547.28;1035373;28;20057;-39
2023/07/11 00:04:37;;;;;;;5.53;3.55;;;;;;;18.25;93.97;101551.06;1035575;28;20116;-40
2023/07/11 00:05:10;;;;;;;9.05;4.95;;;;;;;18.19;93.98;101548.31;1035753;28;20061;-40
2023/07/11 00:05:42;;;;;;;10.57;4.75;;;;;;;18.16;94.11;101548.81;1035633;28;20133;-40
2023/07/11 00:06:20;;;;;;;4.28;3.00;;;;;;;18.12;94.96;101542.28;1036921;28;20393;-39
2023/07/11 00:06:52;;;;;;;4.53;3.42;;;;;;;18.12;95.27;101542.28;1035916;28;20052;-39
2023/07/11 00:07:25;;;;;;;5.93;2.92;;;;;;;18.03;95.01;101542.94;1033374;28;20132;-40
2023/07/11 00:07:56;;;;;;;7.10;3.58;;;;;;;18.10;95.55;101544.41;1035464;28;20492;-39
2023/07/11 00:08:28;;;;;;;7.57;3.92;;;;;;;18.14;95.25;101540.16;1035929;28;20092;-40
2023/07/11 00:09:00;;;;;;;6.72;3.30;;;;;;;18.12;95.04;101542.28;1035991;28;20093;-40
2023/07/11 00:09:31;;;;;;;6.38;3.63;;;;;;;18.15;94.52;101543.66;1035689;28;20046;-40
2023/07/11 00:10:03;;;;;;;5.32;3.42;;;;;;;18.08;95.47;101540.31;1036082;28;20042;-39
2023/07/11 00:10:35;;;;;;;6.65;3.72;;;;;;;18.05;95.36;101538.91;1035566;28;20042;-40
2023/07/11 00:11:09;;;;;;;8.18;3.60;;;;;;;18.07;95.76;101534.09;1035438;28;20049;-40
2023/07/11 00:11:41;;;;;;;8.43;3.47;;;;;;;17.86;95.99;101537.59;1035891;28;20049;-51
2023/07/11 00:12:13;;;;;;;10.40;3.05;;;;;;;18.07;96.04;101539.50;1036093;28;20128;-40
2023/07/11 00:12:45;;;;;;;6.32;3.20;;;;;;;18.09;95.41;101536.56;1036226;28;20046;-39
2023/07/11 00:13:17;;;;;;;5.22;3.17;;;;;;;18.16;95.14;101531.81;1035021;28;20490;-39
2023/07/11 00:13:51;;;;;;;6.53;3.20;;;;;;;18.15;94.66;101536.38;1035729;28;20042;-39
2023/07/11 00:14:23;;;;;;;4.10;3.05;;;;;;;17.90;95.18;101534.16;1036009;28;20037;-40
2023/07/11 00:14:56;;;;;;;6.50;3.90;;;;;;;18.06;95.24;101537.03;1035759;28;20063;-40
2023/07/11 00:15:28;;;;;;;8.75;3.80;;;;;;;18.09;94.64;101532.00;1035693;28;20048;-40
2023/07/11 00:16:03;;;;;;;5.32;3.63;;;;;;;17.97;94.70;101539.34;1035839;28;20377;-39
2023/07/11 00:16:35;;;;;;;7.85;3.63;;;;;;;18.06;94.65;101535.16;1035730;28;20110;-39
2023/07/11 00:17:07;;;;;;;3.83;2.67;;;;;;;18.07;94.39;101534.09;1035738;28;20042;-39
2023/07/11 00:17:38;;;;;;;6.00;3.33;;;;;;;18.06;94.17;101535.16;1035888;28;20148;-40
2023/07/11 00:18:10;;;;;;;7.38;3.40;;;;;;;18.03;94.36;101537.53;1035789;28;20153;-39
2023/07/11 00:18:43;;;;;;;7.10;3.47;;;;;;;17.98;94.59;101530.22;1035212;28;20175;-40
2023/07/11 00:19:14;;;;;;;8.98;4.68;;;;;;;18.02;94.39;101531.34;1036022;28;20412;-39
2023/07/11 00:19:52;;;;;;;6.03;3.42;;;;;;;18.00;94.69;101528.06;1036078;28;20077;-39
2023/07/11 00:20:24;;;;;;;6.63;2.95;;;;;;;18.05;94.63;101533.53;1035620;28;20050;-39
2023/07/11 00:20:56;;;;;;;13.82;3.97;;;;;;;18.07;94.21;101533.28;1035728;28;20484;-39
2023/07/11 00:21:27;;;;;;;6.28;3.45;;;;;;;18.01;94.59;101535.09;1035855;28;20125;-40
2023/07/11 00:21:59;;;;;;;5.95;3.53;;;;;;;18.07;94.40;101533.28;1035557;28;20041;-39
2023/07/11 00:22:31;;;;;;;5.43;3.20;;;;;;;17.98;94.27;101530.22;1035900;28;20049;-39
2023/07/11 00:23:03;;;;;;;5.15;3.30;;;;;;;17.88;94.74;101532.78;1035600;28;20045;-40
2023/07/11 00:23:34;;;;;;;5.65;3.00;;;;;;;17.97;95.11;101528.56;1035847;28;20087;-39
2023/07/11 00:24:06;;;;;;;6.93;3.05;;;;;;;18.03;94.59;101527.56;1035213;28;20475;-39
2023/07/11 00:24:38;;;;;;;4.03;3.00;;;;;;;18.05;94.58;101530.84;1035974;28;20038;-40
2023/07/11 00:25:10;;;;;;;6.97;3.58;;;;;;;17.90;94.19;101534.16;1036907;28;20049;-50
2023/07/11 00:25:42;;;;;;;9.02;3.90;;;;;;;18.01;94.29;101529.72;1036719;28;20507;-39
2023/07/11 00:26:13;;;;;;;5.32;2.75;;;;;;;18.01;94.13;101518.91;1035799;28;20050;-39
2023/07/11 00:26:45;;;;;;;6.53;3.25;;;;;;;17.95;94.17;101529.88;1035731;28;20044;-40
2023/07/11 00:27:18;;;;;;;6.43;3.20;;;;;;;18.01;94.24;101528.88;1036513;28;20044;-40
2023/07/11 00:27:52;;;;;;;7.53;3.60;;;;;;;17.94;94.00;101534.47;1035482;28;20496;-46
2023/07/11 00:28:24;;;;;;;9.50;4.88;;;;;;;17.99;93.97;101531.84;1035960;28;20052;-45
2023/07/11 00:29:18;;;;;;;7.85;4.45;;;;;;;18.05;94.16;101520.06;1035670;28;20065;-49
2023/07/11 00:29:51;;;;;;;4.22;3.20;;;;;;;18.04;94.35;101525.69;1035318;28;20112;-48
2023/07/11 00:30:23;;;;;;;7.28;3.42;;;;;;;18.02;94.04;101531.34;1035633;28;20389;-49
2023/07/11 00:30:54;;;;;;;6.57;3.22;;;;;;;18.02;93.55;101525.94;1035520;28;20038;-51
2023/07/11 00:31:27;;;;;;;7.65;2.88;;;;;;;18.04;93.85;101529.22;1035831;28;20061;-49
2023/07/11 00:31:59;;;;;;;7.88;3.10;;;;;;;18.04;93.66;101526.50;1035535;28;20536;-49
2023/07/11 00:32:31;;;;;;;8.70;3.03;;;;;;;18.02;93.59;101530.53;1034843;28;20064;-48
2023/07/11 00:33:03;;;;;;;4.55;3.08;;;;;;;18.05;93.50;101528.13;1027110;28;20046;-51
2023/07/11 00:33:35;;;;;;;5.30;2.50;;;;;;;18.12;93.44;101522.59;1027762;28;20054;-50
2023/07/11 00:34:06;;;;;;;13.77;3.50;;;;;;;18.12;93.20;101526.09;1031546;28;20046;-49
2023/07/11 00:34:38;;;;;;;4.35;3.55;;;;;;;18.14;92.99;101523.97;1031783;28;20046;-49
2023/07/11 00:35:10;;;;;;;13.07;3.95;;;;;;;18.02;92.54;101520.56;1035407;28;20536;-50
2023/07/11 00:35:46;;;;;;;13.80;4.28;;;;;;;18.00;92.91;101513.78;1035496;28;20424;-48
2023/07/11 00:36:18;;;;;;;17.60;4.35;;;;;;;18.03;92.99;101527.56;1035744;28;20045;-49
2023/07/11 00:36:50;;;;;;;14.52;3.63;;;;;;;18.08;93.04;101519.59;1035700;28;20503;-49
2023/07/11 00:37:22;;;;;;;11.10;3.72;;;;;;;18.10;92.55;101522.84;1035880;28;20088;-48
2023/07/11 00:37:54;;;;;;;16.58;5.40;;;;;;;18.05;93.07;101520.06;1036056;28;20045;-50
2023/07/11 00:38:27;;;;;;;8.30;3.60;;;;;;;18.02;92.92;101515.16;1035168;28;20073;-50
2023/07/11 00:39:01;;;;;;;5.90;3.08;;;;;;;17.96;92.93;101516.16;1035327;28;20041;-50
2023/07/11 00:39:34;;;;;;;9.05;4.28;;;;;;;18.03;93.17;101521.38;1033121;28;20049;-51
2023/07/11 00:40:06;;;;;;;11.13;3.50;;;;;;;18.06;93.20;101526.25;1035182;28;20041;-51
2023/07/11 00:40:46;;;;;;;6.68;3.25;;;;;;;18.07;92.85;101515.22;1035779;28;20037;-50
2023/07/11 00:41:18;;;;;;;4.45;3.20;;;;;;;18.07;92.97;101512.53;1035405;28;20045;-51
2023/07/11 00:41:50;;;;;;;10.00;3.45;;;;;;;18.04;92.51;101513.03;1035741;28;20033;-48
2023/07/11 00:42:22;;;;;;;11.43;3.20;;;;;;;17.93;93.18;101511.28;1031204;28;20105;-49
2023/07/11 00:42:55;;;;;;;8.98;2.83;;;;;;;18.02;92.94;101509.78;1027719;28;20062;-49
2023/07/11 00:43:30;;;;;;;3.08;2.72;;;;;;;18.01;93.36;101513.53;1032021;28;20117;-45
2023/07/11 00:44:02;;;;;;;6.45;3.58;;;;;;;18.04;92.67;101510.34;1028132;28;20043;-39
2023/07/11 00:45:01;;;;;;;7.35;3.80;;;;;;;18.09;92.37;101510.44;1027401;28;20129;-39
2023/07/11 00:46:05;;;;;;;4.45;2.92;;;;;;;17.89;93.43;101504.75;1027196;28;20042;-39
2023/07/11 00:46:39;;;;;;;4.97;2.28;;;;;;;17.83;93.78;101505.75;1034737;28;20336;-39
2023/07/11 00:47:11;;;;;;;10.32;4.05;;;;;;;17.91;94.64;101513.41;1035986;28;20057;-39
2023/07/11 00:47:43;;;;;;;6.70;3.95;;;;;;;17.93;94.87;101508.56;1035826;28;20103;-40
2023/07/11 00:48:18;;;;;;;6.35;3.80;;;;;;;17.92;94.46;101509.63;1035378;28;20057;-39
2023/07/11 00:48:54;;;;;;;5.35;2.85;;;;;;;17.93;95.08;101511.28;1031415;28;20030;-40
2023/07/11 00:49:25;;;;;;;6.15;3.35;;;;;;;18.00;95.02;101511.91;1031142;28;20048;-39
2023/07/11 00:50:06;;;;;;;4.68;2.67;;;;;;;17.59;95.28;101510.47;1032454;28;20042;-40
2023/07/11 00:50:39;;;;;;;5.55;3.75;;;;;;;17.61;95.42;101519.13;1030344;28;20082;-46
2023/07/11 00:51:14;;;;;;;3.65;3.17;;;;;;;17.75;96.19;101509.66;1031211;28;20050;-47
2023/07/11 00:51:50;;;;;;;4.43;3.08;;;;;;;17.86;96.57;101507.94;1023073;28;20134;-47
2023/07/11 00:52:22;;;;;;;4.82;2.55;;;;;;;17.82;96.71;101509.50;1024880;28;20066;-50
2023/07/11 00:52:54;;;;;;;7.25;2.97;;;;;;;17.50;98.29;101514.63;1024272;29;20409;-40
2023/07/11 00:53:26;;;;;;;4.38;3.05;;;;;;;17.30;99.07;101515.16;1017720;29;20052;-40
2023/07/11 00:53:58;;;;;;;8.75;3.28;;;;;;;17.29;100.00;101517.03;1023572;28;20095;-39
2023/07/11 00:54:32;;;;;;;6.85;2.88;;;;;;;17.36;100.00;101516.84;1023933;28;20126;-40
2023/07/11 00:55:07;;;;;;;3.60;3.30;;;;;;;17.57;100.00;101513.44;1023964;28;20058;-40
2023/07/11 00:55:40;;;;;;;5.55;3.05;;;;;;;17.37;100.00;101515.78;1027012;28;20709;-39
2023/07/11 00:56:14;;;;;;;5.80;3.20;;;;;;;17.44;100.00;101519.13;1024471;28;20061;-39
2023/07/11 00:56:47;;;;;;;7.35;3.85;;;;;;;17.57;100.00;101521.50;1024839;28;20061;-39
2023/07/11 00:57:18;;;;;;;6.20;2.80;;;;;;;17.60;99.76;101521.00;1028497;28;20043;-39
2023/07/11 00:57:51;;;;;;;5.70;3.63;;;;;;;17.64;98.90;101517.81;1031846;28;20046;-39
2023/07/11 00:58:23;;;;;;;6.30;3.10;;;;;;;17.61;99.13;101519.94;1035590;28;20401;-40
2023/07/11 00:58:56;;;;;;;4.82;2.65;;;;;;;17.56;99.56;101514.50;1035522;28;20042;-39
2023/07/11 00:59:29;;;;;;;5.30;3.40;;;;;;;17.50;99.85;101511.94;1034598;28;20432;-39
2023/07/11 01:00:01;;;;;;;4.40;3.05;;;;;;;17.59;100.00;101511.28;1035332;28;20047;-40
2023/07/11 01:00:33;;;;;;;4.50;2.78;;;;;;;17.35;100.00;101519.78;1032234;28;20046;-40
2023/07/11 01:01:07;;;;;;;8.48;3.03;;;;;;;17.38;100.00;101512.03;1032884;28;20045;-40
2023/07/11 01:01:39;;;;;;;9.73;3.53;;;;;;;17.51;100.00;101521.66;1035283;28;20037;-39
2023/07/11 01:02:18;;;;;;;3.47;2.83;;;;;;;17.22;100.00;101516.34;1035384;28;20050;-40
2023/07/11 01:02:50;;;;;;;4.13;2.50;;;;;;;17.10;100.00;101514.78;1031207;28;20042;-40
2023/07/11 01:03:23;;;;;;;7.57;3.08;;;;;;;17.02;100.00;101510.63;1031333;28;20045;-40
2023/07/11 01:03:55;;;;;;;2.80;2.30;;;;;;;17.14;100.00;101515.94;1026871;28;20046;-39
2023/07/11 01:04:27;;;;;;;4.45;2.78;;;;;;;16.96;100.00;101509.69;1028076;28;20043;-39
2023/07/11 01:05:00;;;;;;;5.45;2.60;;;;;;;17.13;100.00;101517.00;1027651;28;20065;-39
2023/07/11 01:05:31;;;;;;;9.05;3.33;;;;;;;17.10;100.00;101509.41;1031977;28;20053;-40
2023/07/11 01:06:09;;;;;;;3.15;2.90;;;;;;;17.11;100.00;101513.72;1035247;28;20113;-39
2023/07/11 01:06:41;;;;;;;5.00;2.95;;;;;;;17.05;100.00;101509.31;1035517;28;20052;-40
2023/07/11 01:07:20;;;;;;;5.95;2.85;;;;;;;16.95;100.00;101512.63;1036370;28;20034;-48
2023/07/11 01:07:52;;;;;;;3.85;2.78;;;;;;;16.94;100.00;101511.00;1039583;28;20128;-50
2023/07/11 01:08:24;;;;;;;6.47;2.83;;;;;;;16.92;100.00;101510.44;1038826;28;20500;-47
2023/07/11 01:08:56;;;;;;;5.60;3.08;;;;;;;16.99;100.00;101514.63;1039271;28;20045;-48
2023/07/11 01:09:28;;;;;;;10.10;2.80;;;;;;;17.07;100.00;101515.28;1034251;28;20601;-47
2023/07/11 01:10:00;;;;;;;4.05;2.95;;;;;;;17.13;100.00;101514.31;1031571;28;20038;-49
2023/07/11 01:10:31;;;;;;;5.53;2.78;;;;;;;16.99;100.00;101514.63;1031203;28;20460;-49
2023/07/11 01:11:03;;;;;;;4.05;2.67;;;;;;;17.10;100.00;101517.47;1032034;28;20540;-42
2023/07/11 01:11:54;;;;;;;5.72;2.72;;;;;;;17.15;100.00;101514.88;1036319;28;20037;-49
2023/07/11 01:12:26;;;;;;;;;;;;;;;17.06;100.00;101517.16;1034447;28;20046;-46
2023/07/11 01:13:00;;;;;;;11.13;2.92;;;;;;;17.04;100.00;101508.50;1035393;28;19930;-48
2023/07/11 01:13:32;;;;;;;5.20;2.80;;;;;;;16.90;100.00;101518.75;1031457;28;20531;-48
2023/07/11 01:14:05;;;;;;;5.25;2.80;;;;;;;16.94;100.00;101517.19;1028209;28;20043;-48
2023/07/11 01:14:37;;;;;;;5.53;3.10;;;;;;;17.07;100.00;101512.59;1031068;28;20058;-51
2023/07/11 01:15:09;;;;;;;14.80;3.13;;;;;;;17.07;100.00;101523.34;1032226;28;20056;-48
2023/07/11 01:15:41;;;;;;;6.03;3.10;;;;;;;16.99;100.00;101506.56;1033302;28;20046;-49
2023/07/11 01:16:13;;;;;;;6.60;2.95;;;;;;;16.89;100.00;101511.72;1035223;28;20054;-49
2023/07/11 01:16:45;;;;;;;7.03;3.63;;;;;;;16.93;100.00;101510.19;1031023;28;20101;-50
2023/07/11 01:17:21;;;;;;;5.53;3.03;;;;;;;16.93;100.00;101506.69;1031597;28;20042;-51
2023/07/11 01:17:53;;;;;;;5.65;2.55;;;;;;;17.06;100.00;101513.66;1028295;28;20136;-47
2023/07/11 01:18:24;;;;;;;9.20;3.28;;;;;;;16.99;100.00;101514.63;1032006;28;20318;-50
2023/07/11 01:18:56;;;;;;;7.70;2.75;;;;;;;16.91;100.00;101512.31;1035527;28;20053;-47
2023/07/11 01:19:28;;;;;;;7.50;3.53;;;;;;;16.91;100.00;101509.63;1035084;28;20038;-50
2023/07/11 01:20:02;;;;;;;7.75;3.55;;;;;;;16.73;100.00;101507.16;1034517;28;20132;-51
2023/07/11 01:20:33;;;;;;;5.13;2.70;;;;;;;16.82;100.00;101505.69;1035227;28;20056;-51
2023/07/11 01:21:08;;;;;;;5.72;3.00;;;;;;;16.84;100.00;101498.19;1034881;28;20037;-50
2023/07/11 01:21:39;;;;;;;5.90;2.47;;;;;;;16.81;100.00;101512.13;1035589;28;20046;-50
2023/07/11 01:22:11;;;;;;;4.65;2.42;;;;;;;16.89;100.00;101510.91;1035545;28;20518;-50
2023/07/11 01:22:43;;;;;;;3.20;2.75;;;;;;;16.84;100.00;101511.66;1035221;28;20061;-47
2023/07/11 01:23:17;;;;;;;6.07;3.08;;;;;;;16.75;100.00;101509.59;1031354;28;20069;-50
2023/07/11 01:23:49;;;;;;;5.18;3.13;;;;;;;16.82;100.00;101505.69;1031282;28;20042;-50
2023/07/11 01:24:20;;;;;;;6.30;3.42;;;;;;;16.95;100.00;101504.56;1027886;28;20035;-49
2023/07/11 01:24:52;;;;;;;2.92;2.38;;;;;;;17.13;100.00;101500.84;1027744;28;20576;-47
2023/07/11 01:25:24;;;;;;;5.80;2.35;;;;;;;17.36;100.00;101507.97;1031043;28;20165;-50
2023/07/11 01:26:05;;;;;;;4.65;2.63;;;;;;;17.24;100.00;101498.06;1031423;28;20046;-49
2023/07/11 01:26:38;;;;;;;5.78;2.50;;;;;;;17.23;100.00;101503.69;1035392;28;20456;-51
2023/07/11 01:27:10;;;;;;;4.22;2.83;;;;;;;17.14;100.00;101502.47;1040403;28;20049;-42
2023/07/11 01:27:45;;;;;;;4.38;3.00;;;;;;;17.17;100.00;101501.97;1039896;28;20041;-49
2023/07/11 01:28:16;;;;;;;4.60;2.78;;;;;;;17.34;100.00;101502.81;1039437;28;20050;-47
2023/07/11 01:28:48;;;;;;;5.43;2.80;;;;;;;17.35;100.00;101504.44;1038930;28;20172;-46
2023/07/11 01:29:20;;;;;;;7.05;2.83;;;;;;;17.53;100.00;101498.81;1036384;28;20050;-51
2023/07/11 01:29:52;;;;;;;4.15;2.58;;;;;;;17.50;100.00;101499.28;1034929;28;20046;-50
2023/07/11 01:30:24;;;;;;;2.60;2.40;;;;;;;17.36;100.00;101503.38;1035284;28;20571;-48
2023/07/11 01:30:56;;;;;;;3.90;2.70;;;;;;;17.15;100.00;101501.41;1030865;28;20050;-49
2023/07/11 01:31:28;;;;;;;3.90;2.60;;;;;;;17.07;100.00;101496.44;1027684;28;20132;-50
2023/07/11 01:32:00;;;;;;;7.43;2.53;;;;;;;17.04;100.00;101503.13;1031319;28;20145;-51
2023/07/11 01:32:32;;;;;;;4.63;2.17;;;;;;;16.83;100.00;101496.56;1027784;28;20141;-46
2023/07/11 01:33:04;;;;;;;3.78;2.30;;;;;;;16.78;100.00;101495.66;1031760;28;20049;-50
2023/07/11 01:33:35;;;;;;;6.78;2.92;;;;;;;16.77;100.00;101496.72;1034995;28;20046;-48
2023/07/11 01:34:07;;;;;;;6.50;2.97;;;;;;;16.85;100.00;101499.81;1035284;28;20117;-50
2023/07/11 01:34:40;;;;;;;5.13;2.67;;;;;;;16.84;100.00;101495.50;1035276;28;20428;-51
2023/07/11 01:35:12;;;;;;;3.88;2.40;;;;;;;16.95;100.00;101494.59;1035206;28;20049;-48
2023/07/11 01:35:44;;;;;;;3.35;2.70;;;;;;;16.78;100.00;101491.09;1035140;28;20053;-46
2023/07/11 01:36:15;;;;;;;4.53;2.60;;;;;;;16.83;100.00;101493.06;1035549;28;20037;-49
2023/07/11 01:36:47;;;;;;;6.40;2.33;;;;;;;16.96;100.00;101492.72;1035560;28;20048;-50
2023/07/11 01:37:19;;;;;;;3.17;2.20;;;;;;;17.27;100.00;101492.22;1035158;28;20054;-51
2023/07/11 01:37:51;;;;;;;7.53;2.63;;;;;;;17.16;100.00;101489.59;1035838;28;20153;-46
2023/07/11 01:38:24;;;;;;;5.53;2.88;;;;;;;17.23;100.00;101492.91;1035970;28;20538;-47
2023/07/11 01:38:57;;;;;;;4.07;2.63;;;;;;;17.09;100.00;101495.13;1036162;28;20049;-40
2023/07/11 01:39:28;;;;;;;5.35;2.70;;;;;;;17.15;100.00;101488.75;1035516;28;20034;-40
2023/07/11 01:40:00;;;;;;;6.05;2.70;;;;;;;17.23;100.00;101491.03;1034727;28;20071;-40
2023/07/11 01:40:34;;;;;;;6.55;2.88;;;;;;;16.91;100.00;101490.78;1036291;28;20045;-40
2023/07/11 01:41:06;;;;;;;5.78;2.78;;;;;;;16.82;100.00;101489.53;1035549;28;20054;-48
2023/07/11 01:41:38;;;;;;;4.05;2.88;;;;;;;16.94;100.00;101492.16;1035541;28;20034;-50
2023/07/11 01:42:09;;;;;;;3.72;2.58;;;;;;;16.92;100.00;101488.91;1035722;28;20050;-51
2023/07/11 01:42:41;;;;;;;7.45;2.80;;;;;;;16.74;100.00;101486.44;1035731;28;20038;-49
2023/07/11 01:43:17;;;;;;;3.17;2.13;;;;;;;16.68;100.00;101485.50;1035506;28;20050;-51
2023/07/11 01:43:49;;;;;;;4.25;2.63;;;;;;;16.81;100.00;101482.53;1035543;28;20038;-48
2023/07/11 01:44:21;;;;;;;3.63;2.40;;;;;;;16.74;100.00;101481.88;1039131;28;20052;-51
2023/07/11 01:44:53;;;;;;;4.78;2.83;;;;;;;16.87;100.00;101475.38;1039520;28;20404;-44
2023/07/11 01:45:27;;;;;;;5.28;2.28;;;;;;;17.19;100.00;101481.00;1037127;28;20045;-39
2023/07/11 01:45:59;;;;;;;6.93;2.80;;;;;;;17.23;100.00;101479.47;1038288;28;20047;-40
2023/07/11 01:46:33;;;;;;;5.68;3.45;;;;;;;16.90;100.00;101473.00;1035815;28;20424;-47
2023/07/11 01:47:07;;;;;;;4.38;2.80;;;;;;;16.86;100.00;101473.72;1031608;28;20097;-39
2023/07/11 01:47:39;;;;;;;8.02;2.78;;;;;;;17.19;100.00;101478.31;1026968;28;20035;-39
2023/07/11 01:48:10;;;;;;;4.15;2.92;;;;;;;17.13;100.00;101480.13;1027825;28;20717;-39
2023/07/11 01:48:42;;;;;;;5.63;2.80;;;;;;;17.25;100.00;101474.66;1027874;28;20047;-39
2023/07/11 01:49:14;;;;;;;3.67;2.83;;;;;;;17.31;100.00;101471.00;1031458;28;20428;-40
2023/07/11 01:49:45;;;;;;;5.10;3.22;;;;;;;16.79;100.00;101478.44;1035157;28;20061;-39
2023/07/11 01:50:17;;;;;;;3.08;2.42;;;;;;;16.93;100.00;101475.19;1035955;28;20046;-45
2023/07/11 01:50:49;;;;;;;4.38;2.80;;;;;;;17.04;100.00;101475.41;1036077;28;20033;-50
2023/07/11 01:51:20;;;;;;;6.90;3.03;;;;;;;17.01;100.00;101476.69;1036253;28;20060;-51
2023/07/11 01:52:02;;;;;;;6.60;2.75;;;;;;;17.15;100.00;101477.19;1035706;28;20058;-40
2023/07/11 01:52:34;;;;;;;5.65;2.85;;;;;;;17.07;100.00;101477.59;1035939;28;20423;-48
2023/07/11 01:53:06;;;;;;;5.20;2.80;;;;;;;17.21;100.00;101478.91;1036049;28;20042;-50
2023/07/11 01:53:38;;;;;;;4.55;2.65;;;;;;;17.29;100.00;101483.88;1035228;28;20050;-51
2023/07/11 01:54:09;;;;;;;4.82;2.95;;;;;;;17.44;100.00;101475.22;1035851;28;20492;-46
2023/07/11 01:54:41;;;;;;;3.67;2.50;;;;;;;17.27;100.00;101473.38;1035626;28;20042;-48
2023/07/11 01:55:13;;;;;;;8.15;3.45;;;;;;;17.36;100.00;101473.75;1034998;28;20155;-49
2023/07/11 01:55:55;;;;;;;7.55;3.33;;;;;;;17.29;100.00;101479.31;1031067;28;20047;-51
2023/07/11 01:56:26;;;;;;;5.03;3.30;;;;;;;17.43;100.00;101466.31;1027706;28;20046;-48
2023/07/11 01:56:59;;;;;;;5.70;3.20;;;;;;;17.23;100.00;101471.38;1025419;28;20405;-50
2023/07/11 01:57:31;;;;;;;4.03;3.13;;;;;;;17.03;100.00;101469.19;1030020;28;20531;-51
2023/07/11 01:58:02;;;;;;;5.72;3.15;;;;;;;16.99;100.00;101473.44;1031771;28;20038;-50
2023/07/11 01:58:34;;;;;;;8.00;3.75;;;;;;;17.12;100.00;101469.59;1032068;28;20046;-49
2023/07/11 01:59:06;;;;;;;5.28;2.58;;;;;;;17.35;100.00;101469.44;1029631;28;20465;-46
2023/07/11 01:59:38;;;;;;;6.80;4.38;;;;;;;17.32;100.00;101467.25;1031640;28;20188;-51
2023/07/11 02:00:11;;;;;;;10.48;3.35;;;;;;;17.22;100.00;101470.56;1028314;28;20966;-50
2023/07/11 02:00:42;;;;;;;7.88;3.20;;;;;;;17.37;100.00;101463.81;1032759;28;20045;-50
2023/07/11 02:01:14;;;;;;;8.52;3.17;;;;;;;17.37;100.00;101459.22;1035713;28;20057;-49
2023/07/11 02:01:46;;;;;;;8.63;3.63;;;;;;;17.38;100.00;101460.88;1035993;28;20048;-47
2023/07/11 02:02:17;;;;;;;8.10;3.45;;;;;;;17.01;100.00;101465.94;1035898;28;20046;-45
2023/07/11 02:02:49;;;;;;;7.55;4.00;;;;;;;17.25;100.00;101455.78;1035946;28;20053;-48
2023/07/11 02:03:23;;;;;;;6.55;2.67;;;;;;;17.12;100.00;101456.13;1031862;28;20038;-50
2023/07/11 02:03:55;;;;;;;7.40;3.38;;;;;;;17.32;100.00;101455.66;1032767;28;20089;-51
2023/07/11 02:04:27;;;;;;;6.05;3.78;;;;;;;17.16;100.00;101457.28;1031863;28;20038;-46
2023/07/11 02:04:59;;;;;;;3.50;2.95;;;;;;;17.30;100.00;101461.28;1033416;28;20035;-46
2023/07/11 02:05:31;;;;;;;6.28;4.47;;;;;;;17.27;100.00;101453.69;1035954;28;20479;-49
2023/07/11 02:06:03;;;;;;;6.07;3.55;;;;;;;17.34;100.00;101459.72;1032288;28;20047;-48
2023/07/11 02:06:35;;;;;;;5.75;3.08;;;;;;;17.35;100.00;101450.59;1035688;28;20180;-46
2023/07/11 02:07:07;;;;;;;10.18;3.55;;;;;;;17.40;100.00;101453.34;1036074;28;20041;-48
2023/07/11 02:07:39;;;;;;;3.97;3.33;;;;;;;17.40;100.00;101453.34;1036201;28;20104;-48
2023/07/11 02:08:10;;;;;;;6.47;3.17;;;;;;;17.35;100.00;101450.59;1035704;28;20133;-45
2023/07/11 02:08:46;;;;;;;8.38;4.18;;;;;;;17.45;100.00;101450.72;1031403;28;20061;-49
2023/07/11 02:09:19;;;;;;;8.15;3.33;;;;;;;17.36;100.00;101452.22;1027927;28;20054;-48
2023/07/11 02:09:51;;;;;;;6.45;3.30;;;;;;;17.22;100.00;101450.91;1028914;28;20038;-51
2023/07/11 02:10:22;;;;;;;4.05;2.80;;;;;;;17.24;100.00;101449.59;1033046;28;20042;-39
2023/07/11 02:11:01;;;;;;;10.15;3.53;;;;;;;17.17;100.00;101442.75;1035850;28;20156;-46
2023/07/11 02:11:33;;;;;;;7.28;3.20;;;;;;;17.10;100.00;101447.50;1035971;28;20626;-50
2023/07/11 02:12:05;;;;;;;4.55;3.33;;;;;;;17.12;100.00;101450.75;1031729;28;20521;-51
2023/07/11 02:12:37;;;;;;;5.22;4.00;;;;;;;17.08;100.00;101446.94;1027815;28;20122;-49
2023/07/11 02:13:11;;;;;;;9.10;4.40;;;;;;;16.78;100.00;101444.53;1028292;28;20035;-47
2023/07/11 02:13:45;;;;;;;3.65;3.00;;;;;;;16.97;100.00;101444.03;1033130;28;20046;-49
2023/07/11 02:14:18;;;;;;;4.90;3.50;;;;;;;17.06;100.00;101440.97;1031603;28;20067;-45
2023/07/11 02:14:50;;;;;;;3.45;3.20;;;;;;;16.91;100.00;101445.03;1033432;28;20042;-51
2023/07/11 02:15:22;;;;;;;5.55;3.70;;;;;;;17.03;100.00;101441.47;1036912;28;20349;-39
2023/07/11 02:15:53;;;;;;;6.05;3.10;;;;;;;16.99;100.00;101439.25;1035453;28;20034;-39
2023/07/11 02:16:25;;;;;;;3.95;3.60;;;;;;;16.92;100.00;101446.66;1038646;28;20431;-39
2023/07/11 02:16:57;;;;;;;3.47;3.17;;;;;;;16.89;100.00;101435.56;1036572;28;20050;-40
2023/07/11 02:17:29;;;;;;;4.82;2.95;;;;;;;16.93;100.00;101445.59;1036065;28;20042;-40
2023/07/11 02:18:01;;;;;;;7.68;3.17;;;;;;;16.83;100.00;101442.75;1035905;28;20042;-41
2023/07/11 02:18:34;;;;;;;7.60;3.58;;;;;;;16.83;100.00;101442.75;1037259;28;20045;-49
2023/07/11 02:19:05;;;;;;;6.32;3.50;;;;;;;16.93;100.00;101444.78;1035981;28;20124;-51
2023/07/11 02:19:37;;;;;;;3.70;3.25;;;;;;;16.97;100.00;101444.03;1035827;28;20400;-48
2023/07/11 02:20:09;;;;;;;6.97;3.70;;;;;;;16.90;100.00;101435.31;1036255;28;20496;-50
2023/07/11 02:20:44;;;;;;;8.52;3.35;;;;;;;16.94;100.00;101439.16;1034115;28;20042;-48
2023/07/11 02:21:40;;;;;;;3.85;3.22;;;;;;;16.83;100.00;101442.75;1037127;28;20140;-51
2023/07/11 02:22:12;;;;;;;8.73;3.70;;;;;;;16.84;100.00;101438.19;1035880;28;20092;-39
2023/07/11 02:22:44;;;;;;;4.05;3.35;;;;;;;16.72;100.00;101435.56;1036276;28;20263;-40
2023/07/11 02:23:16;;;;;;;9.20;3.92;;;;;;;16.82;100.00;101434.91;1035865;28;20065;-40
2023/07/11 02:23:48;;;;;;;4.05;3.33;;;;;;;16.79;100.00;101430.03;1035837;28;20053;-40
2023/07/11 02:24:19;;;;;;;4.20;3.45;;;;;;;17.12;100.00;101434.59;1035859;28;20049;-39
2023/07/11 02:24:51;;;;;;;5.38;3.53;;;;;;;17.24;100.00;101432.63;1035784;28;20278;-39
2023/07/11 02:25:22;;;;;;;6.03;3.63;;;;;;;17.11;100.00;101433.78;1036300;28;20033;-39
2023/07/11 02:25:54;;;;;;;6.78;3.22;;;;;;;17.12;100.00;101429.22;1036435;28;20050;-49
2023/07/11 02:26:26;;;;;;;3.80;3.40;;;;;;;17.05;100.00;101433.97;1036873;28;20411;-51
2023/07/11 02:26:58;;;;;;;11.57;3.67;;;;;;;16.74;100.00;101433.44;1036061;28;20042;-47
2023/07/11 02:27:29;;;;;;;6.68;4.68;;;;;;;16.79;100.00;101433.53;1036283;28;20045;-48
2023/07/11 02:28:01;;;;;;;7.75;4.07;;;;;;;16.91;100.00;101428.88;1036303;28;20049;-49
2023/07/11 02:28:33;;;;;;;6.25;3.67;;;;;;;16.98;100.00;101421.47;1036273;28;20395;-50
2023/07/11 02:29:05;;;;;;;9.48;3.78;;;;;;;17.20;100.00;101428.81;1036740;28;20093;-43
2023/07/11 02:29:37;;;;;;;8.15;3.80;;;;;;;17.16;100.00;101424.97;1036602;28;20050;-39
2023/07/11 02:30:09;;;;;;;4.03;2.72;;;;;;;17.32;100.00;101424.16;1036060;28;20049;-40
2023/07/11 02:30:40;;;;;;;8.73;3.40;;;;;;;17.34;100.00;101421.22;1036015;28;20484;-39
2023/07/11 02:31:13;;;;;;;6.03;2.90;;;;;;;17.17;100.00;101421.22;1036647;28;20826;-50
2023/07/11 02:31:48;;;;;;;4.05;3.17;;;;;;;17.08;100.00;101420.81;1036656;28;20124;-40
2023/07/11 02:32:19;;;;;;;9.73;4.53;;;;;;;17.04;100.00;101421.56;1036110;28;20107;-39